createdAt,value
2018-03-06T00:02:20.647Z,98113.10
2018-03-06T00:04:48.343Z,98110.45
2018-03-06T00:07:15.984Z,98111.37
2018-03-06T00:09:43.685Z,98113.20
2018-03-06T00:12:11.346Z,98122.38
2018-03-06T00:14:39.034Z,98118.00
2018-03-06T00:17:06.672Z,98118.63
2018-03-06T00:19:34.353Z,98116.50
2018-03-06T00:22:02.011Z,98111.13
2018-03-06T00:24:29.696Z,98113.28
2018-03-06T00:26:57.436Z,98114.14
2018-03-06T00:29:25.033Z,98115.15
2018-03-06T00:31:52.758Z,98116.36
2018-03-06T00:34:20.490Z,98115.31
2018-03-06T00:36:48.257Z,98118.58
2018-03-06T00:39:15.940Z,98117.31
2018-03-06T00:41:43.578Z,98116.09
2018-03-06T00:44:11.264Z,98121.16
2018-03-06T00:46:38.916Z,98118.98
2018-03-06T00:49:06.605Z,98114.05
2018-03-06T00:51:34.315Z,98112.86
2018-03-06T00:54:01.985Z,98113.98
2018-03-06T00:56:29.635Z,98120.91
2018-03-06T00:58:57.310Z,98116.16
2018-03-06T01:01:24.957Z,98111.23
2018-03-06T01:03:52.650Z,98112.48
2018-03-06T01:06:20.285Z,98114.66
2018-03-06T01:08:47.991Z,98115.41
2018-03-06T01:11:15.657Z,98103.34
2018-03-06T01:13:43.308Z,98099.66
2018-03-06T01:16:10.964Z,98094.50
2018-03-06T01:18:38.652Z,98094.65
2018-03-06T01:21:06.386Z,98098.42
2018-03-06T01:23:34.052Z,98098.83
2018-03-06T01:26:01.729Z,98094.77
2018-03-06T01:28:29.447Z,98083.70
2018-03-06T01:30:57.102Z,98076.13
2018-03-06T01:33:24.740Z,98079.80
2018-03-06T01:35:52.428Z,98073.52
2018-03-06T01:38:20.069Z,98072.95
2018-03-06T01:40:47.758Z,98066.07
2018-03-06T01:43:15.412Z,98062.88
2018-03-06T01:45:43.110Z,98063.14
2018-03-06T01:48:10.740Z,98073.37
2018-03-06T01:50:38.562Z,98065.40
2018-03-06T01:53:06.208Z,98069.14
2018-03-06T01:55:33.897Z,98067.69
2018-03-06T01:58:01.580Z,98071.83
2018-03-06T02:00:29.260Z,98069.47
2018-03-06T02:02:56.920Z,98068.05
2018-03-06T02:05:24.603Z,98060.84
2018-03-06T02:07:52.224Z,98063.63
2018-03-06T02:10:19.902Z,98062.23
2018-03-06T02:12:47.560Z,98061.67
2018-03-06T02:15:15.253Z,98065.02
2018-03-06T02:17:42.896Z,98061.18
2018-03-06T02:20:10.564Z,98058.39
2018-03-06T02:22:38.215Z,98057.64
2018-03-06T02:25:06.006Z,98059.80
2018-03-06T02:27:33.664Z,98056.47
2018-03-06T02:30:01.347Z,98047.05
2018-03-06T02:32:28.989Z,98048.13
2018-03-06T02:34:56.664Z,98049.31
2018-03-06T02:37:24.311Z,98047.73
2018-03-06T02:39:51.976Z,98045.98
2018-03-06T02:42:19.611Z,98033.94
2018-03-06T02:44:47.280Z,98031.27
2018-03-06T02:47:14.952Z,98026.64
2018-03-06T02:49:42.628Z,98031.81
2018-03-06T02:52:10.271Z,98024.03
2018-03-06T02:54:37.955Z,98020.30
2018-03-06T02:57:05.605Z,98014.32
2018-03-06T02:59:33.288Z,98011.63
2018-03-06T03:02:00.915Z,98020.08
2018-03-06T03:04:28.584Z,98010.92
2018-03-06T03:06:56.232Z,98007.36
2018-03-06T03:09:23.903Z,97999.02
2018-03-06T03:11:51.558Z,97994.67
2018-03-06T03:14:19.279Z,97998.73
2018-03-06T03:16:46.915Z,98001.98
2018-03-06T03:19:14.606Z,98004.27
2018-03-06T03:21:42.216Z,98008.87
2018-03-06T03:24:09.899Z,98005.11
2018-03-06T03:26:37.548Z,98006.13
2018-03-06T03:29:05.204Z,98003.19
2018-03-06T03:31:32.860Z,98003.83
2018-03-06T03:34:00.540Z,98007.94
2018-03-06T03:36:28.157Z,98003.87
2018-03-06T03:38:55.813Z,98006.91
2018-03-06T03:41:23.503Z,98004.27
2018-03-06T03:43:51.142Z,98005.37
2018-03-06T03:46:18.831Z,98007.81
2018-03-06T03:48:46.462Z,98004.06
2018-03-06T03:51:14.168Z,98003.09
2018-03-06T03:53:41.821Z,98006.35
2018-03-06T03:56:12.337Z,98014.59
2018-03-06T03:58:39.967Z,98011.19
2018-03-06T04:01:07.644Z,98017.52
2018-03-06T04:03:35.314Z,98008.41
2018-03-06T04:06:02.998Z,98009.66
2018-03-06T04:08:30.672Z,98009.09
2018-03-06T04:10:58.396Z,98004.10
2018-03-06T04:13:26.032Z,98009.84
2018-03-06T04:15:53.704Z,98006.10
2018-03-06T04:18:21.375Z,98008.05
2018-03-06T04:20:49.054Z,98010.69
2018-03-06T04:23:16.672Z,98002.09
2018-03-06T04:25:44.352Z,98000.36
2018-03-06T04:28:12.009Z,97999.42
2018-03-06T04:30:39.695Z,97998.29
2018-03-06T04:33:07.348Z,98004.81
2018-03-06T04:35:35.046Z,98005.81
2018-03-06T04:38:02.713Z,98001.36
2018-03-06T04:40:30.384Z,98004.71
2018-03-06T04:42:58.030Z,98006.40
2018-03-06T04:45:25.708Z,98000.88
2018-03-06T04:47:53.364Z,98005.03
2018-03-06T04:50:21.043Z,98008.91
2018-03-06T04:52:48.695Z,98011.64
2018-03-06T04:55:16.362Z,98011.42
2018-03-06T04:57:44.013Z,98016.44
2018-03-06T05:00:11.741Z,98015.62
2018-03-06T05:02:39.354Z,98014.45
2018-03-06T05:05:07.031Z,98007.07
2018-03-06T05:07:34.696Z,98020.34
2018-03-06T05:10:02.449Z,98018.64
2018-03-06T05:12:30.132Z,98015.80
2018-03-06T05:14:57.809Z,98015.59
2018-03-06T05:17:25.448Z,98013.30
2018-03-06T05:19:53.104Z,98015.00
2018-03-06T05:22:20.732Z,98019.27
2018-03-06T05:24:48.408Z,98014.33
2018-03-06T05:27:16.048Z,98016.63
2018-03-06T05:29:43.744Z,98010.61
2018-03-06T05:32:11.475Z,98018.91
2018-03-06T05:34:39.175Z,98020.91
2018-03-06T05:37:06.799Z,98020.02
2018-03-06T05:39:34.524Z,98028.58
2018-03-06T05:42:02.158Z,98025.66
2018-03-06T05:44:29.840Z,98023.44
2018-03-06T05:46:57.460Z,98021.59
2018-03-06T05:49:25.159Z,98022.86
2018-03-06T05:51:52.831Z,98028.78
2018-03-06T05:54:20.456Z,98027.42
2018-03-06T05:56:48.149Z,98026.72
2018-03-06T05:59:15.861Z,98029.10
2018-03-06T06:01:43.540Z,98037.56
2018-03-06T06:04:11.180Z,98035.06
2018-03-06T06:06:38.878Z,98033.13
2018-03-06T06:09:06.531Z,98033.19
2018-03-06T06:11:34.212Z,98033.05
2018-03-06T06:14:01.880Z,98037.42
2018-03-06T06:16:29.520Z,98039.66
2018-03-06T06:18:57.127Z,98041.09
2018-03-06T06:21:24.827Z,98043.06
2018-03-06T06:23:52.457Z,98043.19
2018-03-06T06:26:20.134Z,98037.56
2018-03-06T06:28:47.737Z,98041.95
2018-03-06T06:31:15.380Z,98036.20
2018-03-06T06:33:43.065Z,98039.48
2018-03-06T06:36:10.723Z,98042.48
2018-03-06T06:38:38.372Z,98038.50
2018-03-06T06:41:06.072Z,98032.41
2018-03-06T06:43:33.675Z,98032.78
2018-03-06T06:46:01.341Z,98029.11
2018-03-06T06:48:28.946Z,98038.38
2018-03-06T06:50:56.636Z,98032.04
2018-03-06T06:53:24.320Z,98023.54
2018-03-06T06:55:51.977Z,98035.81
2018-03-06T06:58:19.591Z,98032.90
2018-03-06T07:00:47.264Z,98040.55
2018-03-06T07:03:14.864Z,98044.02
2018-03-06T07:05:42.540Z,98041.81
2018-03-06T07:08:10.241Z,98038.95
2018-03-06T07:10:37.884Z,98037.43
2018-03-06T07:13:05.488Z,98037.01
2018-03-06T07:15:33.138Z,98040.31
2018-03-06T07:18:00.742Z,98042.36
2018-03-06T07:20:28.392Z,98043.23
2018-03-06T07:22:56.017Z,98043.59
2018-03-06T07:25:23.676Z,98038.99
2018-03-06T07:27:51.304Z,98036.39
2018-03-06T07:30:18.966Z,98039.38
2018-03-06T07:32:46.575Z,98035.91
2018-03-06T07:35:14.217Z,98036.70
2018-03-06T07:37:41.839Z,98042.02
2018-03-06T07:40:09.738Z,98042.73
2018-03-06T07:42:37.364Z,98037.70
2018-03-06T07:45:04.992Z,98039.59
2018-03-06T07:47:32.647Z,98046.79
2018-03-06T07:50:00.268Z,98033.82
2018-03-06T07:52:27.928Z,98039.91
2018-03-06T07:54:55.522Z,98035.37
2018-03-06T07:57:23.163Z,98040.64
2018-03-06T07:59:50.816Z,98038.13
2018-03-06T08:02:18.465Z,98038.38
2018-03-06T08:04:46.157Z,98031.57
2018-03-06T08:07:13.842Z,98039.48
2018-03-06T08:09:41.472Z,98038.23
2018-03-06T08:12:09.128Z,98040.01
2018-03-06T08:14:36.744Z,98040.25
2018-03-06T08:17:04.460Z,98033.31
2018-03-06T08:19:32.077Z,98032.41
2018-03-06T08:21:59.755Z,98044.57
2018-03-06T08:24:27.416Z,98037.19
2018-03-06T08:26:55.164Z,98030.86
2018-03-06T08:29:22.776Z,98030.19
2018-03-06T08:31:50.455Z,98029.19
2018-03-06T08:36:50.745Z,98031.69
2018-03-06T08:39:18.369Z,98028.44
2018-03-06T08:41:46.075Z,98029.41
2018-03-06T08:44:13.746Z,98027.72
2018-03-06T08:46:41.513Z,98029.72
2018-03-06T08:49:09.161Z,98026.30
2018-03-06T08:51:36.832Z,98018.23
2018-03-06T08:54:04.433Z,98022.36
2018-03-06T08:56:32.154Z,98016.88
2018-03-06T08:58:59.760Z,98016.20
2018-03-06T09:01:27.414Z,98020.77
2018-03-06T09:03:55.038Z,98017.62
2018-03-06T09:06:22.751Z,98016.10
2018-03-06T09:08:50.353Z,98022.55
2018-03-06T09:11:17.996Z,98024.11
2018-03-06T09:13:45.765Z,98019.30
2018-03-06T09:16:13.411Z,98014.00
2018-03-06T09:18:41.028Z,98021.09
2018-03-06T09:21:08.685Z,98019.16
2018-03-06T09:23:36.460Z,98022.97
2018-03-06T09:26:04.122Z,98015.47
2018-03-06T09:28:31.724Z,98017.81
2018-03-06T09:30:59.369Z,98014.54
2018-03-06T09:33:26.981Z,98017.48
2018-03-06T09:35:54.639Z,98021.28
2018-03-06T09:38:22.254Z,98019.61
2018-03-06T09:40:50.013Z,98033.05
2018-03-06T09:43:17.628Z,98023.89
2018-03-06T09:45:45.353Z,98027.98
2018-03-06T09:48:13.013Z,98018.86
2018-03-06T09:50:40.693Z,98020.95
2018-03-06T09:53:08.356Z,98024.53
2018-03-06T09:55:35.964Z,98025.36
2018-03-06T09:58:03.698Z,98025.62
2018-03-06T10:00:31.317Z,98029.72
2018-03-06T10:02:59.014Z,98024.55
2018-03-06T10:05:26.649Z,98029.39
2018-03-06T10:07:54.338Z,98035.87
2018-03-06T10:10:21.960Z,98025.94
2018-03-06T10:12:49.629Z,98020.34
2018-03-06T10:15:17.284Z,98031.12
2018-03-06T10:17:44.961Z,98029.34
2018-03-06T10:20:12.600Z,98031.76
2018-03-06T10:22:40.277Z,98030.09
2018-03-06T10:25:07.906Z,98036.56
2018-03-06T10:27:35.652Z,98035.06
2018-03-06T10:30:03.280Z,98030.23
2018-03-06T10:32:30.958Z,98035.11
2018-03-06T10:34:58.577Z,98033.34
2018-03-06T10:37:26.252Z,98033.27
2018-03-06T10:39:53.873Z,98031.81
2018-03-06T10:42:21.524Z,98032.34
2018-03-06T10:44:49.156Z,98031.16
2018-03-06T10:47:17.014Z,98028.20
2018-03-06T10:49:44.681Z,98019.52
2018-03-06T10:52:12.344Z,98026.72
2018-03-06T10:54:39.982Z,98023.14
2018-03-06T10:57:07.663Z,98029.34
2018-03-06T10:59:35.303Z,98015.37
2018-03-06T11:02:03.844Z,98025.11
2018-03-06T11:04:31.468Z,98017.53
2018-03-06T11:06:59.161Z,98018.55
2018-03-06T11:09:26.790Z,98017.23
2018-03-06T11:11:54.486Z,98012.09
2018-03-06T11:14:22.176Z,98010.00
2018-03-06T11:16:49.860Z,98013.27
2018-03-06T11:19:17.472Z,98008.92
2018-03-06T11:21:45.144Z,98011.76
2018-03-06T11:24:12.829Z,98010.44
2018-03-06T11:26:40.482Z,98008.90
2018-03-06T11:29:08.112Z,98009.56
2018-03-06T11:31:35.785Z,98000.44
2018-03-06T11:34:03.392Z,97997.07
2018-03-06T11:36:31.043Z,98001.23
2018-03-06T11:38:58.721Z,98003.25
2018-03-06T11:41:26.396Z,98004.06
2018-03-06T11:43:54.053Z,98005.96
2018-03-06T11:46:21.668Z,97992.49
2018-03-06T11:48:49.375Z,98004.91
2018-03-06T11:51:17.000Z,97998.19
2018-03-06T11:53:44.675Z,97994.27
2018-03-06T11:56:12.300Z,97997.03
2018-03-06T11:58:39.986Z,97996.08
2018-03-06T12:01:07.592Z,97990.41
2018-03-06T12:03:35.252Z,97986.86
2018-03-06T12:06:02.896Z,97972.13
2018-03-06T12:08:30.571Z,97983.57
2018-03-06T12:10:58.217Z,97985.67
2018-03-06T12:13:25.905Z,97989.98
2018-03-06T12:15:53.542Z,97985.64
2018-03-06T12:18:21.216Z,97982.17
2018-03-06T12:20:48.836Z,97981.47
2018-03-06T12:23:16.501Z,97980.63
2018-03-06T12:25:44.164Z,97976.23
2018-03-06T12:28:11.829Z,97971.36
2018-03-06T12:30:39.487Z,97974.08
2018-03-06T12:33:07.172Z,97966.39
2018-03-06T12:35:34.791Z,97969.58
2018-03-06T12:38:02.488Z,97968.28
2018-03-06T12:40:30.111Z,97967.92
2018-03-06T12:42:57.821Z,97968.19
2018-03-06T12:45:25.432Z,97960.24
2018-03-06T12:47:53.096Z,97954.97
2018-03-06T12:50:20.712Z,97958.63
2018-03-06T12:52:48.375Z,97954.14
2018-03-06T12:55:15.994Z,97949.66
2018-03-06T12:57:43.692Z,97947.23
2018-03-06T13:00:11.306Z,97936.55
2018-03-06T13:02:39.006Z,97934.41
2018-03-06T13:05:06.641Z,97935.94
2018-03-06T13:07:34.330Z,97933.70
2018-03-06T13:10:01.973Z,97932.75
2018-03-06T13:12:29.628Z,97929.50
2018-03-06T13:14:57.247Z,97929.77
2018-03-06T13:17:24.929Z,97926.20
2018-03-06T13:19:52.601Z,97924.27
2018-03-06T13:22:20.264Z,97921.28
2018-03-06T13:24:47.874Z,97916.36
2018-03-06T13:27:15.529Z,97918.31
2018-03-06T13:29:43.160Z,97917.17
2018-03-06T13:32:10.908Z,97919.63
2018-03-06T13:34:38.533Z,97921.58
2018-03-06T13:37:06.184Z,97916.29
2018-03-06T13:39:33.796Z,97913.98
2018-03-06T13:42:01.525Z,97910.08
2018-03-06T13:44:29.141Z,97908.44
2018-03-06T13:46:57.400Z,97904.74
2018-03-06T13:49:25.114Z,97895.25
2018-03-06T13:51:52.776Z,97898.64
2018-03-06T13:54:20.456Z,97890.47
2018-03-06T13:56:48.479Z,97891.16
2018-03-06T13:59:16.142Z,97883.61
2018-03-06T14:01:43.800Z,97887.80
2018-03-06T14:04:11.470Z,97889.11
2018-03-06T14:06:39.081Z,97889.93
2018-03-06T14:09:06.760Z,97883.42
2018-03-06T14:11:34.416Z,97881.45
2018-03-06T14:14:02.073Z,97883.76
2018-03-06T14:16:29.729Z,97878.87
2018-03-06T14:18:57.459Z,97878.48
2018-03-06T14:21:25.076Z,97882.70
2018-03-06T14:23:52.796Z,97881.41
2018-03-06T14:26:20.406Z,97883.48
2018-03-06T14:28:48.070Z,97876.53
2018-03-06T14:31:15.685Z,97873.55
2018-03-06T14:33:43.352Z,97873.34
2018-03-06T14:36:11.188Z,97870.64
2018-03-06T14:38:38.874Z,97869.34
2018-03-06T14:41:06.499Z,97868.28
2018-03-06T14:43:34.169Z,97863.67
2018-03-06T14:46:01.808Z,97862.73
2018-03-06T14:48:29.472Z,97857.41
2018-03-06T14:50:57.144Z,97855.75
2018-03-06T14:53:24.797Z,97866.23
2018-03-06T14:55:52.477Z,97857.59
2018-03-06T14:58:20.148Z,97862.10
2018-03-06T15:00:47.767Z,97859.19
2018-03-06T15:03:15.428Z,97859.09
2018-03-06T15:05:43.064Z,97851.86
2018-03-06T15:08:10.904Z,97857.23
2018-03-06T15:10:38.667Z,97859.64
2018-03-06T15:13:06.460Z,97852.37
2018-03-06T15:15:34.101Z,97856.48
2018-03-06T15:18:01.788Z,97845.09
2018-03-06T15:20:29.510Z,97857.62
2018-03-06T15:22:57.181Z,97855.86
2018-03-06T15:25:24.813Z,97851.09
2018-03-06T15:27:52.476Z,97854.09
2018-03-06T15:30:20.103Z,97851.09
2018-03-06T15:32:47.773Z,97850.17
2018-03-06T15:35:15.412Z,97850.88
2018-03-06T15:37:43.109Z,97848.50
2018-03-06T15:40:10.782Z,97851.91
2018-03-06T15:42:38.498Z,97847.80
2018-03-06T15:45:06.130Z,97844.87
2018-03-06T15:47:33.792Z,97846.50
2018-03-06T15:50:01.424Z,97848.82
2018-03-06T15:52:29.088Z,97857.11
2018-03-06T15:54:56.707Z,97859.97
2018-03-06T15:57:24.437Z,97859.88
2018-03-06T15:59:52.097Z,97858.92
2018-03-06T16:02:19.725Z,97862.81
2018-03-06T16:04:47.408Z,97862.71
2018-03-06T16:07:15.081Z,97868.94
2018-03-06T16:09:42.752Z,97864.37
2018-03-06T16:12:10.385Z,97866.92
2018-03-06T16:14:38.057Z,97863.75
2018-03-06T16:17:05.676Z,97865.09
2018-03-06T16:19:33.332Z,97870.09
2018-03-06T16:22:00.954Z,97872.15
2018-03-06T16:24:28.600Z,97872.34
2018-03-06T16:26:56.213Z,97864.03
2018-03-06T16:29:23.880Z,97876.94
2018-03-06T16:31:51.493Z,97878.58
2018-03-06T16:34:19.145Z,97874.15
2018-03-06T16:36:46.761Z,97873.42
2018-03-06T16:39:14.416Z,97874.94
2018-03-06T16:41:42.033Z,97885.33
2018-03-06T16:44:09.818Z,97889.50
2018-03-06T16:46:37.445Z,97885.59
2018-03-06T16:49:05.093Z,97885.59
2018-03-06T16:51:32.697Z,97893.56
2018-03-06T16:54:00.408Z,97902.19
2018-03-06T16:56:28.024Z,97900.77
2018-03-06T16:58:55.684Z,97902.20
2018-03-06T17:01:23.290Z,97908.53
2018-03-06T17:03:50.962Z,97913.00
2018-03-06T17:06:18.580Z,97912.93
2018-03-06T17:08:46.236Z,97918.16
2018-03-06T17:11:13.867Z,97917.23
2018-03-06T17:13:41.543Z,97910.91
2018-03-06T17:16:09.168Z,97916.53
2018-03-06T17:18:36.860Z,97922.69
2018-03-06T17:21:04.473Z,97909.06
2018-03-06T17:23:32.128Z,97917.53
2018-03-06T17:25:59.748Z,97912.16
2018-03-06T17:28:27.397Z,97916.37
2018-03-06T17:30:55.075Z,97919.42
2018-03-06T17:33:22.768Z,97919.51
2018-03-06T17:35:50.383Z,97915.08
2018-03-06T17:38:17.999Z,97918.84
2018-03-06T17:40:45.666Z,97920.34
2018-03-06T17:43:13.283Z,97915.24
2018-03-06T17:45:40.944Z,97916.78
2018-03-06T17:48:08.566Z,97920.84
2018-03-06T17:50:36.240Z,97922.46
2018-03-06T17:53:03.892Z,97927.72
2018-03-06T17:55:31.575Z,97920.53
2018-03-06T17:57:59.208Z,97925.23
2018-03-06T18:00:26.864Z,97924.66
2018-03-06T18:02:54.480Z,97938.52
2018-03-06T18:05:22.159Z,97933.84
2018-03-06T18:07:49.776Z,97938.39
2018-03-06T18:10:17.450Z,97940.17
2018-03-06T18:12:45.096Z,97937.99
2018-03-06T18:15:12.760Z,97941.03
2018-03-06T18:17:40.445Z,97940.78
2018-03-06T18:20:08.101Z,97951.03
2018-03-06T18:22:35.728Z,97947.75
2018-03-06T18:25:03.460Z,97945.88
2018-03-06T18:27:31.098Z,97950.00
2018-03-06T18:29:58.755Z,97957.05
2018-03-06T18:32:26.370Z,97956.20
2018-03-06T18:34:54.031Z,97955.19
2018-03-06T18:37:21.680Z,97957.48
2018-03-06T18:39:49.335Z,97960.62
2018-03-06T18:42:16.958Z,97956.40
2018-03-06T18:44:44.624Z,97957.70
2018-03-06T18:47:12.245Z,97962.34
2018-03-06T18:49:51.903Z,97961.59
2018-03-06T18:52:19.517Z,97957.06
2018-03-06T18:54:47.187Z,97968.00
2018-03-06T18:57:14.812Z,97971.69
2018-03-06T18:59:42.659Z,97971.70
2018-03-06T19:02:22.325Z,97968.26
2018-03-06T19:05:01.810Z,97972.05
2018-03-06T19:07:29.432Z,97970.83
2018-03-06T19:09:57.237Z,97974.16
2018-03-06T19:12:24.963Z,97972.97
2018-03-06T19:14:52.648Z,97966.77
2018-03-06T19:17:20.288Z,97974.47
2018-03-06T19:19:48.045Z,97974.00
2018-03-06T19:22:15.705Z,97969.62
2018-03-06T19:24:43.397Z,97974.83
2018-03-06T19:27:11.025Z,97975.95
2018-03-06T19:29:38.646Z,97972.75
2018-03-06T19:32:06.292Z,97975.05
2018-03-06T19:34:33.914Z,97982.23
2018-03-06T19:37:01.570Z,97973.66
2018-03-06T19:39:29.196Z,97978.28
2018-03-06T19:41:56.901Z,97987.08
2018-03-06T19:44:24.531Z,97989.05
2018-03-06T19:46:52.265Z,97985.45
2018-03-06T19:49:19.944Z,97988.30
2018-03-06T19:51:47.748Z,97996.89
2018-03-06T19:54:15.406Z,97991.73
2018-03-06T19:56:43.080Z,97989.73
2018-03-06T19:59:10.725Z,98005.78
2018-03-06T20:01:38.382Z,97995.34
2018-03-06T20:04:06.025Z,98004.92
2018-03-06T20:06:33.684Z,98005.91
2018-03-06T20:09:01.295Z,98009.20
2018-03-06T20:11:28.935Z,98006.82
2018-03-06T20:13:56.598Z,98008.30
2018-03-06T20:16:24.350Z,98004.89
2018-03-06T20:18:57.617Z,98013.04
2018-03-06T20:21:25.236Z,98013.84
2018-03-06T20:23:52.970Z,98007.13
2018-03-06T20:26:20.618Z,98011.94
2018-03-06T20:28:48.289Z,98013.25
2018-03-06T20:31:22.577Z,98019.00
2018-03-06T20:33:50.240Z,98021.81
2018-03-06T20:36:17.862Z,98026.69
2018-03-06T20:38:51.088Z,98016.84
2018-03-06T20:41:18.728Z,98022.77
2018-03-06T20:43:46.422Z,98023.88
2018-03-06T20:46:19.696Z,98020.94
2018-03-06T20:48:47.361Z,98023.23
2018-03-06T20:51:15.058Z,98023.55
2018-03-06T20:53:48.229Z,98027.63
2018-03-06T20:56:15.872Z,98034.18
2018-03-06T20:58:43.548Z,98029.06
2018-03-06T21:01:11.221Z,98032.80
2018-03-06T21:03:38.938Z,98034.53
2018-03-06T21:06:06.568Z,98030.86
2018-03-06T21:08:34.271Z,98026.13
2018-03-06T21:11:01.902Z,98032.66
2018-03-06T21:13:29.560Z,98027.13
2018-03-06T21:15:57.175Z,98031.73
2018-03-06T21:18:24.873Z,98028.75
2018-03-06T21:20:52.515Z,98033.77
2018-03-06T21:23:20.185Z,98029.94
2018-03-06T21:25:47.806Z,98031.20
2018-03-06T21:28:15.418Z,98032.80
2018-03-06T21:30:43.091Z,98031.36
2018-03-06T21:33:10.745Z,98032.24
2018-03-06T21:35:38.433Z,98029.34
2018-03-06T21:38:06.037Z,98029.83
2018-03-06T21:40:33.731Z,98035.73
2018-03-06T21:43:01.356Z,98034.56
2018-03-06T21:45:29.016Z,98043.15
2018-03-06T21:47:56.635Z,98037.38
2018-03-06T21:50:24.312Z,98042.97
2018-03-06T21:52:51.951Z,98047.13
2018-03-06T21:55:19.633Z,98042.95
2018-03-06T21:57:47.265Z,98039.83
2018-03-06T22:00:14.897Z,98039.31
2018-03-06T22:02:42.583Z,98043.91
2018-03-06T22:05:10.240Z,98035.07
2018-03-06T22:07:37.900Z,98036.11
2018-03-06T22:10:05.545Z,98042.09
2018-03-06T22:12:33.196Z,98037.84
2018-03-06T22:15:00.820Z,98034.22
2018-03-06T22:17:28.471Z,98037.12
2018-03-06T22:19:56.086Z,98032.06
2018-03-06T22:22:23.743Z,98033.05
2018-03-06T22:24:51.364Z,98033.84
2018-03-06T22:27:19.009Z,98038.61
2018-03-06T22:29:46.656Z,98035.92
2018-03-06T22:32:14.328Z,98045.75
2018-03-06T22:34:41.944Z,98041.20
2018-03-06T22:37:09.559Z,98041.53
2018-03-06T22:39:37.324Z,98052.88
2018-03-06T22:42:04.931Z,98051.75
2018-03-06T22:44:32.662Z,98049.59
2018-03-06T22:47:00.283Z,98049.03
2018-03-06T22:49:27.948Z,98052.75
2018-03-06T22:51:55.567Z,98048.30
2018-03-06T22:54:23.222Z,98045.02
2018-03-06T22:56:51.230Z,98048.83
2018-03-06T22:59:18.887Z,98052.45
2018-03-06T23:01:46.508Z,98049.84
2018-03-06T23:04:14.159Z,98051.19
2018-03-06T23:06:41.790Z,98052.08
2018-03-06T23:09:09.462Z,98050.91
2018-03-06T23:11:37.132Z,98051.98
2018-03-06T23:14:04.798Z,98056.84
2018-03-06T23:16:32.426Z,98055.07
2018-03-06T23:19:00.932Z,98059.56
2018-03-06T23:21:28.592Z,98065.64
2018-03-06T23:23:56.200Z,98064.44
2018-03-06T23:26:23.887Z,98072.51
2018-03-06T23:28:51.508Z,98067.78
2018-03-06T23:31:19.159Z,98066.56
2018-03-06T23:33:46.766Z,98073.58
2018-03-06T23:36:14.440Z,98070.45
2018-03-06T23:38:42.049Z,98067.15
2018-03-06T23:41:09.728Z,98064.52
2018-03-06T23:43:37.341Z,98065.83
2018-03-06T23:46:05.014Z,98066.77
2018-03-06T23:48:32.627Z,98069.78
2018-03-06T23:51:00.279Z,98065.92
2018-03-06T23:53:27.905Z,98065.91
2018-03-06T23:55:55.552Z,98080.89
2018-03-06T23:58:28.731Z,98075.80
